Polson, Montana
Current Conditions -  °F | °C
As of 10:55 AM on Tuesday 21 Oct 2014 (Local Time) from KGPI Reporting Station
Light Rain Light Rain  
Wind Chill: 46°   Ceiling: 5000
Heat Index: 48°   Visibility: 9mi
Dew Point: 47°   Wind: 5mph
Humidity: 96%   Direction: 140°SE
Pressure: 29.8"   Gusts: NA
Location:  47.69°N, 114.16°W
Report Text: KGPI 211655Z 14004KT 9SM -RA OVC050 09/08 A2980 RMK AO2 SLP102 P0001 T00890083
Loading
Personal Weather Stations






























Interactive Weather Map
Tropical Storm Tracking
New forecast layout! Learn more

10-Day Weather Forecast

Advertisements
Track Severe Weather on mobile